| Date | Time | Temp. (oF) | Dew Point (oF) | Rel. Hum. (%) | Press. (in.) | Wind Dir. (deg.) | Wind Speed (mph) | Hourly Rainfall (i n.) |
|
|---|---|---|---|---|---|---|---|---|---|
| 1 | 08/26 | 24:00 | 70 | 68 | 96 | 30.11 | 330 | 1 | 0.05 |
| 2 | 08/25 | 23:00 | 70 | 68 | 95 | 30.12 | 140 | 1 | 0.07 |
| 3 | 08/25 | 22:00 | 71 | 69 | 94 | 30.13 | 150 | 0 | 0.04 |
| 4 | 08/25 | 21:00 | 71 | 68 | 93 | 30.13 | 150 | 1 | 0.03 |
| 5 | 08/25 | 20:00 | 73 | 69 | 90 | 30.13 | 150 | 0 | 0.00 |
| 6 | 08/25 | 19:00 | 73 | 69 | 90 | 30.15 | 130 | 0 | 0.01 |
| 7 | 08/25 | 18:00 | 74 | 70 | 89 | 30.16 | 130 | 2 | 0.00 |
| 8 | 08/25 | 17:00 | 74 | 68 | 84 | 30.17 | 140 | 2 | 0.01 |
| 9 | 08/25 | 16:00 | 77 | 68 | 74 | 30.18 | 150 | 4 | 0.00 |
| 10 | 08/25 | 15:00 | 81 | 67 | 63 | 30.19 | 90 | 6 | 0.00 |
| 11 | 08/25 | 14:00 | 80 | 66 | 64 | 30.20 | 220 | 6 | 0.00 |
| 12 | 08/25 | 13:00 | 83 | 69 | 64 | 30.26 | 110 | 4 | 0.00 |
| 13 | 08/25 | 12:00 | 83 | 69 | 63 | 30.28 | 190 | 7 | 0.00 |
| 14 | 08/25 | 11:00 | 81 | 69 | 69 | 30.29 | 130 | 6 | 0.00 |
| 15 | 08/25 | 10:00 | 76 | 67 | 74 | 30.28 | 130 | 6 | 0.00 |
| 16 | 08/25 | 09:00 | 69 | 64 | 87 | 30.32 | 150 | 1 | 0.00 |
| 17 | 08/25 | 08:00 | 67 | 62 | 87 | 30.32 | 150 | 1 | 0.00 |
| 18 | 08/25 | 07:00 | 65 | 61 | 89 | 30.31 | 150 | 0 | 0.00 |
| 19 | 08/25 | 06:00 | 65 | 61 | 89 | 30.30 | 150 | 0 | 0.00 |
| 20 | 08/25 | 05:00 | 65 | 61 | 88 | 30.30 | 150 | 0 | 0.00 |
| 21 | 08/25 | 04:00 | 65 | 61 | 88 | 30.31 | 150 | 0 | 0.00 |
| 22 | 08/25 | 03:00 | 65 | 60 | 86 | 30.32 | 150 | 0 | 0.00 |
| 23 | 08/25 | 02:00 | 67 | 61 | 84 | 30.32 | 150 | 0 | 0.00 |
| 24 | 08/25 | 01:00 | 67 | 60 | 81 | 30.32 | 150 | 0 | 0.00 |